Christine Anderson — WCN2606 — position and weather

sailwx.info

Track history (hours):
 
Tides and Currents Weather Stations Pressure Air Temp Water Temp Dewpoint Dewpoint Depression Visibility Wind Speed Wind Dir Waves Ship Positions

Christine Anderson

Owner: PIERCE, COUNTY OF, TACOMA, WA. More information available from US FCC via Universal Licensing System and Coast Guard Vessel Documentation Center.

Last reported at 2017-Jan-19 01:33 UTC. Time now 2017-Jan-19 02:22 UTC.
Position N 47°11' W 122°36'.

MMSI: 366659730.

Date/timePositionNaut miles runAvg speedWind from/ knotsBaromVisibWave heightAir tempDewpointWater temp
2017-Jan-19 01:33N 47°11' W 122°36'2 1.6
2017-Jan-19 00:32N 47°11' W 122°39'0 0.4
2017-Jan-18 23:30N 47°11' W 122°38'0 0.3
2017-Jan-18 22:31N 47°11' W 122°39'2 1.3
2017-Jan-18 21:09N 47°10' W 122°36'2 2.3
2017-Jan-18 20:17N 47°11' W 122°39'1 0.5
2017-Jan-18 18:33N 47°11' W 122°40'0 0.1
2017-Jan-18 17:32N 47°11' W 122°41'0 0.1
2017-Jan-18 16:20N 47°11' W 122°40'0 0.1
2017-Jan-18 15:32N 47°11' W 122°41'3 3.0
2017-Jan-18 14:31N 47°11' W 122°36'0 0.2
2017-Jan-18 13:33N 47°10' W 122°36'0 0.0
2017-Jan-18 12:33N 47°10' W 122°36'0 0.0
2017-Jan-18 05:31N 47°10' W 122°36'0 0.0
2017-Jan-18 04:33N 47°10' W 122°36'0 0.0
2017-Jan-18 03:33N 47°10' W 122°36'0 0.1
2017-Jan-18 02:19N 47°11' W 122°36'0 0.2
2017-Jan-18 01:31N 47°10' W 122°36'1 1.5
2017-Jan-18 00:33N 47°11' W 122°38'1 0.6
2017-Jan-17 23:33N 47°11' W 122°39'0 0.1
2017-Jan-17 22:31N 47°11' W 122°39'2 1.3
2017-Jan-17 21:04N 47°10' W 122°36'3 5.4
2017-Jan-17 20:32N 47°11' W 122°40'3 2.1
2017-Jan-17 19:08N 47°10' W 122°36'2 3.1
2017-Jan-17 18:33N 47°11' W 122°39'1 1.0
2017-Jan-17 17:23N 47°11' W 122°41'0 0.4
2017-Jan-17 16:33N 47°11' W 122°40'0 0.2
2017-Jan-17 15:33N 47°11' W 122°40'3 2.9
2017-Jan-17 14:33N 47°10' W 122°36'0 0.0
2017-Jan-17 13:32N 47°10' W 122°36'0 0.0
2017-Jan-17 05:32N 47°10' W 122°36'0 0.1
2017-Jan-17 03:29N 47°11' W 122°36'0 0.2
2017-Jan-17 02:22N 47°10' W 122°36'0 0.3
2017-Jan-17 01:34N 47°11' W 122°36'1 1.3
2017-Jan-17 00:32N 47°11' W 122°38'1 0.6
2017-Jan-16 23:32N 47°11' W 122°39'0 0.2
2017-Jan-16 22:33N 47°11' W 122°39'2 1.0
2017-Jan-16 21:04N 47°11' W 122°37'3 3.3
2017-Jan-16 20:17N 47°11' W 122°40'0 0.1
2017-Jan-16 18:33N 47°11' W 122°40'0 0.3
2017-Jan-16 17:33N 47°11' W 122°40'0 0.1
2017-Jan-16 16:33N 47°11' W 122°40'1 0.6
2017-Jan-16 15:24N 47°11' W 122°41'3 3.4
2017-Jan-16 14:32N 47°11' W 122°36'0 0.0
2017-Jan-16 13:31N 47°11' W 122°36'0 0.0
2017-Jan-16 05:30N 47°10' W 122°36'1 0.7
2017-Jan-16 03:33N 47°10' W 122°38'1 0.7
2017-Jan-16 02:13N 47°11' W 122°37'0 0.1
2017-Jan-16 01:04N 47°11' W 122°37'1 1.9
2017-Jan-16 00:33N 47°11' W 122°39'0 0.2
2017-Jan-15 23:32N 47°11' W 122°39'0 0.4
2017-Jan-15 22:32N 47°11' W 122°39'2 1.3
2017-Jan-15 21:05N 47°11' W 122°37'3 5.1
2017-Jan-15 20:33N 47°11' W 122°41'3 2.2
2017-Jan-15 19:11N 47°10' W 122°36'3 4.4
2017-Jan-15 18:31N 47°11' W 122°40'0 0.2
2017-Jan-15 17:32N 47°11' W 122°40'0 0.1
2017-Jan-15 16:33N 47°11' W 122°40'0 0.0
2017-Jan-15 15:33N 47°11' W 122°40'0 0.0
2017-Jan-15 06:15N 47°11' W 122°40'2 3.1
2017-Jan-15 05:27N 47°10' W 122°36'1 0.7
2017-Jan-15 03:33N 47°10' W 122°38'1 0.3
2017-Jan-15 00:27N 47°11' W 122°38'0 0.3
2017-Jan-14 23:30N 47°11' W 122°38'0 0.1
2017-Jan-14 22:29N 47°11' W 122°38'2 0.7
2017-Jan-14 20:18N 47°11' W 122°40'0 0.0
2017-Jan-14 18:33N 47°11' W 122°40'0 0.0
2017-Jan-14 17:18N 47°11' W 122°40'0 0.4
2017-Jan-14 16:33N 47°11' W 122°40'0 0.2
2017-Jan-14 15:32N 47°11' W 122°40'2 2.1
2017-Jan-14 14:31N 47°11' W 122°37'2 0.2
2017-Jan-14 06:32N 47°11' W 122°40'3 2.5
2017-Jan-14 05:28N 47°10' W 122°36'1 0.6
2017-Jan-14 03:27N 47°10' W 122°38'1 0.3
2017-Jan-13 23:07N 47°11' W 122°36'2 3.0
2017-Jan-13 22:33N 47°11' W 122°39'2 1.3
2017-Jan-13 21:08N 47°11' W 122°36'3 4.1
2017-Jan-13 20:25N 47°11' W 122°41'0 0.2
2017-Jan-13 18:33N 47°11' W 122°40'0 0.3
2017-Jan-13 17:31N 47°11' W 122°40'0 0.4
2017-Jan-13 16:33N 47°11' W 122°40'0 0.2
2017-Jan-13 15:33N 47°11' W 122°40'2 2.4
2017-Jan-13 14:31N 47°11' W 122°37'0 0.2
2017-Jan-13 13:33N 47°11' W 122°36'0 0.0
2017-Jan-13 05:30N 47°10' W 122°36'1 0.6
2017-Jan-13 03:31N 47°10' W 122°38'1 1.1
2017-Jan-13 02:23N 47°10' W 122°36'0 0.1
2017-Jan-13 01:18N 47°11' W 122°36'2 2.2
2017-Jan-13 00:33N 47°11' W 122°39'0 0.5
2017-Jan-12 23:32N 47°11' W 122°39'0 0.4
2017-Jan-12 22:33N 47°11' W 122°40'2 1.6
2017-Jan-12 21:09N 47°11' W 122°37'3 3.8
2017-Jan-12 20:26N 47°11' W 122°41'1 0.3
2017-Jan-12 18:33N 47°11' W 122°40'0 0.1
2017-Jan-12 17:33N 47°11' W 122°40'0 0.0
2017-Jan-12 16:34N 47°11' W 122°40'0 0.1
2017-Jan-12 15:33N 47°11' W 122°40'3 2.7
2017-Jan-12 14:33N 47°11' W 122°36'0 0.1
2017-Jan-12 13:33N 47°11' W 122°36'0 0.0
2017-Jan-12 05:30N 47°10' W 122°36'0 0.0
2017-Jan-12 03:30N 47°10' W 122°36'0 0.0
2017-Jan-12 02:19N 47°10' W 122°36'2 0.9
2017-Jan-12 00:30N 47°11' W 122°39'0 0.0
2017-Jan-11 23:31N 47°11' W 122°39'0 0.2
2017-Jan-11 22:29N 47°11' W 122°38'1 0.6
2017-Jan-11 20:32N 47°11' W 122°40'0 0.1
2017-Jan-11 18:33N 47°11' W 122°40'0 0.4
2017-Jan-11 17:34N 47°11' W 122°40'0 0.2
2017-Jan-11 16:33N 47°11' W 122°40'0 0.5
2017-Jan-11 15:30N 47°11' W 122°41'3 3.2
2017-Jan-11 14:33N 47°10' W 122°36'0 0.0
2017-Jan-11 13:32N 47°10' W 122°36'0 0.0
2017-Jan-11 05:32N 47°10' W 122°36'1 0.6
2017-Jan-11 03:29N 47°10' W 122°38'1 1.2
2017-Jan-11 02:21N 47°11' W 122°36'0 0.2
2017-Jan-11 01:10N 47°10' W 122°36'2 3.0
2017-Jan-11 00:33N 47°11' W 122°39'0 0.2
2017-Jan-10 23:33N 47°11' W 122°39'0 0.4
2017-Jan-10 22:30N 47°11' W 122°39'2 1.2
2017-Jan-10 21:05N 47°10' W 122°36'3 4.8
2017-Jan-10 20:33N 47°11' W 122°40'0 0.1
2017-Jan-10 18:34N 47°11' W 122°40'0 0.1
2017-Jan-10 17:15N 47°11' W 122°40'0 0.5
2017-Jan-10 16:22N 47°11' W 122°41'0 0.0
2017-Jan-10 15:21N 47°11' W 122°40'3 3.4
2017-Jan-10 14:33N 47°11' W 122°36'0 0.0
2017-Jan-10 13:32N 47°11' W 122°36'0 0.0
2017-Jan-10 05:30N 47°10' W 122°36'0 0.0
2017-Jan-10 04:32N 47°10' W 122°36'0 0.0
2017-Jan-10 03:33N 47°10' W 122°36'0 0.0
2017-Jan-10 02:20N 47°10' W 122°36'0 0.5
2017-Jan-10 01:34N 47°11' W 122°37'1 1.3
2017-Jan-10 00:32N 47°11' W 122°39'0 0.1
2017-Jan-09 23:33N 47°11' W 122°39'0 0.1
2017-Jan-09 22:30N 47°11' W 122°39'2 1.2
2017-Jan-09 21:08N 47°10' W 122°36'3 4.5
2017-Jan-09 20:33N 47°11' W 122°40'0 0.1
2017-Jan-09 18:33N 47°11' W 122°40'0 0.4
2017-Jan-09 17:33N 47°11' W 122°40'0 0.3
2017-Jan-09 16:33N 47°11' W 122°40'0 0.2
2017-Jan-09 15:33N 47°11' W 122°40'3 2.8
2017-Jan-09 14:33N 47°10' W 122°36'0 0.0
2017-Jan-09 13:33N 47°10' W 122°36'0 0.0
2017-Jan-09 05:31N 47°10' W 122°36'0 0.0
2017-Jan-09 04:24N 47°10' W 122°36'1 1.3
2017-Jan-09 03:26N 47°10' W 122°38'1 1.4
2017-Jan-09 02:33N 47°10' W 122°36'1 0.5
2017-Jan-09 01:33N 47°11' W 122°37'  
Track history (hours):
 
Tides and Currents Weather Stations Pressure Air Temp Water Temp Dewpoint Dewpoint Depression Visibility Wind Speed Wind Dir Waves Ship Positions

Christine Anderson

Owner: PIERCE, COUNTY OF, TACOMA, WA. More information available from US FCC via Universal Licensing System and Coast Guard Vessel Documentation Center.

Last reported at 2017-Jan-19 01:33 UTC. Time now 2017-Jan-19 02:22 UTC.
Position N 47°11' W 122°36'.

MMSI: 366659730.

Date/timePositionNaut miles runAvg speedWind from/ knotsBaromVisibWave heightAir tempDewpointWater temp
2017-Jan-19 01:33N 47°11' W 122°36'2 1.6
2017-Jan-19 00:32N 47°11' W 122°39'0 0.4
2017-Jan-18 23:30N 47°11' W 122°38'0 0.3
2017-Jan-18 22:31N 47°11' W 122°39'2 1.3
2017-Jan-18 21:09N 47°10' W 122°36'2 2.3
2017-Jan-18 20:17N 47°11' W 122°39'1 0.5
2017-Jan-18 18:33N 47°11' W 122°40'0 0.1
2017-Jan-18 17:32N 47°11' W 122°41'0 0.1
2017-Jan-18 16:20N 47°11' W 122°40'0 0.1
2017-Jan-18 15:32N 47°11' W 122°41'3 3.0
2017-Jan-18 14:31N 47°11' W 122°36'0 0.2
2017-Jan-18 13:33N 47°10' W 122°36'0 0.0
2017-Jan-18 12:33N 47°10' W 122°36'0 0.0
2017-Jan-18 05:31N 47°10' W 122°36'0 0.0
2017-Jan-18 04:33N 47°10' W 122°36'0 0.0
2017-Jan-18 03:33N 47°10' W 122°36'0 0.1
2017-Jan-18 02:19N 47°11' W 122°36'0 0.2
2017-Jan-18 01:31N 47°10' W 122°36'1 1.5
2017-Jan-18 00:33N 47°11' W 122°38'1 0.6
2017-Jan-17 23:33N 47°11' W 122°39'0 0.1
2017-Jan-17 22:31N 47°11' W 122°39'2 1.3
2017-Jan-17 21:04N 47°10' W 122°36'3 5.4
2017-Jan-17 20:32N 47°11' W 122°40'3 2.1
2017-Jan-17 19:08N 47°10' W 122°36'2 3.1
2017-Jan-17 18:33N 47°11' W 122°39'1 1.0
2017-Jan-17 17:23N 47°11' W 122°41'0 0.4
2017-Jan-17 16:33N 47°11' W 122°40'0 0.2
2017-Jan-17 15:33N 47°11' W 122°40'3 2.9
2017-Jan-17 14:33N 47°10' W 122°36'0 0.0
2017-Jan-17 13:32N 47°10' W 122°36'0 0.0
2017-Jan-17 05:32N 47°10' W 122°36'0 0.1
2017-Jan-17 03:29N 47°11' W 122°36'0 0.2
2017-Jan-17 02:22N 47°10' W 122°36'0 0.3
2017-Jan-17 01:34N 47°11' W 122°36'1 1.3
2017-Jan-17 00:32N 47°11' W 122°38'1 0.6
2017-Jan-16 23:32N 47°11' W 122°39'0 0.2
2017-Jan-16 22:33N 47°11' W 122°39'2 1.0
2017-Jan-16 21:04N 47°11' W 122°37'3 3.3
2017-Jan-16 20:17N 47°11' W 122°40'0 0.1
2017-Jan-16 18:33N 47°11' W 122°40'0 0.3
2017-Jan-16 17:33N 47°11' W 122°40'0 0.1
2017-Jan-16 16:33N 47°11' W 122°40'1 0.6
2017-Jan-16 15:24N 47°11' W 122°41'3 3.4
2017-Jan-16 14:32N 47°11' W 122°36'0 0.0
2017-Jan-16 13:31N 47°11' W 122°36'0 0.0
2017-Jan-16 05:30N 47°10' W 122°36'1 0.7
2017-Jan-16 03:33N 47°10' W 122°38'1 0.7
2017-Jan-16 02:13N 47°11' W 122°37'0 0.1
2017-Jan-16 01:04N 47°11' W 122°37'1 1.9
2017-Jan-16 00:33N 47°11' W 122°39'0 0.2
2017-Jan-15 23:32N 47°11' W 122°39'0 0.4
2017-Jan-15 22:32N 47°11' W 122°39'2 1.3
2017-Jan-15 21:05N 47°11' W 122°37'3 5.1
2017-Jan-15 20:33N 47°11' W 122°41'3 2.2
2017-Jan-15 19:11N 47°10' W 122°36'3 4.4
2017-Jan-15 18:31N 47°11' W 122°40'0 0.2
2017-Jan-15 17:32N 47°11' W 122°40'0 0.1
2017-Jan-15 16:33N 47°11' W 122°40'0 0.0
2017-Jan-15 15:33N 47°11' W 122°40'0 0.0
2017-Jan-15 06:15N 47°11' W 122°40'2 3.1
2017-Jan-15 05:27N 47°10' W 122°36'1 0.7
2017-Jan-15 03:33N 47°10' W 122°38'1 0.3
2017-Jan-15 00:27N 47°11' W 122°38'0 0.3
2017-Jan-14 23:30N 47°11' W 122°38'0 0.1
2017-Jan-14 22:29N 47°11' W 122°38'2 0.7
2017-Jan-14 20:18N 47°11' W 122°40'0 0.0
2017-Jan-14 18:33N 47°11' W 122°40'0 0.0
2017-Jan-14 17:18N 47°11' W 122°40'0 0.4
2017-Jan-14 16:33N 47°11' W 122°40'0 0.2
2017-Jan-14 15:32N 47°11' W 122°40'2 2.1
2017-Jan-14 14:31N 47°11' W 122°37'2 0.2
2017-Jan-14 06:32N 47°11' W 122°40'3 2.5
2017-Jan-14 05:28N 47°10' W 122°36'1 0.6
2017-Jan-14 03:27N 47°10' W 122°38'1 0.3
2017-Jan-13 23:07N 47°11' W 122°36'2 3.0
2017-Jan-13 22:33N 47°11' W 122°39'2 1.3
2017-Jan-13 21:08N 47°11' W 122°36'3 4.1
2017-Jan-13 20:25N 47°11' W 122°41'0 0.2
2017-Jan-13 18:33N 47°11' W 122°40'0 0.3
2017-Jan-13 17:31N 47°11' W 122°40'0 0.4
2017-Jan-13 16:33N 47°11' W 122°40'0 0.2
2017-Jan-13 15:33N 47°11' W 122°40'2 2.4
2017-Jan-13 14:31N 47°11' W 122°37'0 0.2
2017-Jan-13 13:33N 47°11' W 122°36'0 0.0
2017-Jan-13 05:30N 47°10' W 122°36'1 0.6
2017-Jan-13 03:31N 47°10' W 122°38'1 1.1
2017-Jan-13 02:23N 47°10' W 122°36'0 0.1
2017-Jan-13 01:18N 47°11' W 122°36'2 2.2
2017-Jan-13 00:33N 47°11' W 122°39'0 0.5
2017-Jan-12 23:32N 47°11' W 122°39'0 0.4
2017-Jan-12 22:33N 47°11' W 122°40'2 1.6
2017-Jan-12 21:09N 47°11' W 122°37'3 3.8
2017-Jan-12 20:26N 47°11' W 122°41'1 0.3
2017-Jan-12 18:33N 47°11' W 122°40'0 0.1
2017-Jan-12 17:33N 47°11' W 122°40'0 0.0
2017-Jan-12 16:34N 47°11' W 122°40'0 0.1
2017-Jan-12 15:33N 47°11' W 122°40'3 2.7
2017-Jan-12 14:33N 47°11' W 122°36'0 0.1
2017-Jan-12 13:33N 47°11' W 122°36'0 0.0
2017-Jan-12 05:30N 47°10' W 122°36'0 0.0
2017-Jan-12 03:30N 47°10' W 122°36'0 0.0
2017-Jan-12 02:19N 47°10' W 122°36'2 0.9
2017-Jan-12 00:30N 47°11' W 122°39'0 0.0
2017-Jan-11 23:31N 47°11' W 122°39'0 0.2
2017-Jan-11 22:29N 47°11' W 122°38'1 0.6
2017-Jan-11 20:32N 47°11' W 122°40'0 0.1
2017-Jan-11 18:33N 47°11' W 122°40'0 0.4
2017-Jan-11 17:34N 47°11' W 122°40'0 0.2
2017-Jan-11 16:33N 47°11' W 122°40'0 0.5
2017-Jan-11 15:30N 47°11' W 122°41'3 3.2
2017-Jan-11 14:33N 47°10' W 122°36'0 0.0
2017-Jan-11 13:32N 47°10' W 122°36'0 0.0
2017-Jan-11 05:32N 47°10' W 122°36'1 0.6
2017-Jan-11 03:29N 47°10' W 122°38'1 1.2
2017-Jan-11 02:21N 47°11' W 122°36'0 0.2
2017-Jan-11 01:10N 47°10' W 122°36'2 3.0
2017-Jan-11 00:33N 47°11' W 122°39'0 0.2
2017-Jan-10 23:33N 47°11' W 122°39'0 0.4
2017-Jan-10 22:30N 47°11' W 122°39'2 1.2
2017-Jan-10 21:05N 47°10' W 122°36'3 4.8
2017-Jan-10 20:33N 47°11' W 122°40'0 0.1
2017-Jan-10 18:34N 47°11' W 122°40'0 0.1
2017-Jan-10 17:15N 47°11' W 122°40'0 0.5
2017-Jan-10 16:22N 47°11' W 122°41'0 0.0
2017-Jan-10 15:21N 47°11' W 122°40'3 3.4
2017-Jan-10 14:33N 47°11' W 122°36'0 0.0
2017-Jan-10 13:32N 47°11' W 122°36'0 0.0
2017-Jan-10 05:30N 47°10' W 122°36'0 0.0
2017-Jan-10 04:32N 47°10' W 122°36'0 0.0
2017-Jan-10 03:33N 47°10' W 122°36'0 0.0
2017-Jan-10 02:20N 47°10' W 122°36'0 0.5
2017-Jan-10 01:34N 47°11' W 122°37'1 1.3
2017-Jan-10 00:32N 47°11' W 122°39'0 0.1
2017-Jan-09 23:33N 47°11' W 122°39'0 0.1
2017-Jan-09 22:30N 47°11' W 122°39'2 1.2
2017-Jan-09 21:08N 47°10' W 122°36'3 4.5
2017-Jan-09 20:33N 47°11' W 122°40'0 0.1
2017-Jan-09 18:33N 47°11' W 122°40'0 0.4
2017-Jan-09 17:33N 47°11' W 122°40'0 0.3
2017-Jan-09 16:33N 47°11' W 122°40'0 0.2
2017-Jan-09 15:33N 47°11' W 122°40'3 2.8
2017-Jan-09 14:33N 47°10' W 122°36'0 0.0
2017-Jan-09 13:33N 47°10' W 122°36'0 0.0
2017-Jan-09 05:31N 47°10' W 122°36'0 0.0
2017-Jan-09 04:24N 47°10' W 122°36'1 1.3
2017-Jan-09 03:26N 47°10' W 122°38'1 1.4
2017-Jan-09 02:33N 47°10' W 122°36'1 0.5
2017-Jan-09 01:33N 47°11' W 122°37'  

Dump ship's entire track history